sensor_id;sensor_type;location;lat;lon;timestamp;pressure;altitude;pressure_sealevel;temperature;humidity
64388;BME280;50709;52.648;4.764;2023-10-09T00:02:06;102018.69;;;20.59;69.74
64388;BME280;50709;52.648;4.764;2023-10-09T00:04:37;102015.25;;;20.54;69.95
64388;BME280;50709;52.648;4.764;2023-10-09T00:07:05;102001.72;;;20.66;69.54
64388;BME280;50709;52.648;4.764;2023-10-09T00:09:36;101993.78;;;20.64;69.39
64388;BME280;50709;52.648;4.764;2023-10-09T00:12:17;101999.81;;;20.74;69.39
64388;BME280;50709;52.648;4.764;2023-10-09T00:15:03;101973.56;;;20.59;69.11
64388;BME280;50709;52.648;4.764;2023-10-09T00:17:36;101993.50;;;20.78;69.14
64388;BME280;50709;52.648;4.764;2023-10-09T00:20:03;101997.84;;;20.82;68.80
64388;BME280;50709;52.648;4.764;2023-10-09T00:22:45;101989.78;;;20.87;69.20
64388;BME280;50709;52.648;4.764;2023-10-09T00:25:16;101994.25;;;20.85;69.35
64388;BME280;50709;52.648;4.764;2023-10-09T00:27:49;101991.63;;;20.83;68.92
64388;BME280;50709;52.648;4.764;2023-10-09T00:30:16;101999.84;;;20.73;69.16
64388;BME280;50709;52.648;4.764;2023-10-09T00:32:47;101995.03;;;20.90;69.04
64388;BME280;50709;52.648;4.764;2023-10-09T00:35:27;101987.91;;;20.92;68.99
64388;BME280;50709;52.648;4.764;2023-10-09T00:38:05;101978.31;;;20.87;68.67
64388;BME280;50709;52.648;4.764;2023-10-09T00:40:52;101975.75;;;20.82;69.28
64388;BME280;50709;52.648;4.764;2023-10-09T00:43:26;101980.00;;;20.89;68.71
64388;BME280;50709;52.648;4.764;2023-10-09T00:46:12;101976.59;;;20.82;69.38
64388;BME280;50709;52.648;4.764;2023-10-09T00:48:56;101970.34;;;20.87;68.79
64388;BME280;50709;52.648;4.764;2023-10-09T00:51:26;101973.78;;;20.90;68.80
64388;BME280;50709;52.648;4.764;2023-10-09T00:53:57;101961.41;;;20.91;69.18
64388;BME280;50709;52.648;4.764;2023-10-09T00:57:00;101940.22;;;20.88;68.92
64388;BME280;50709;52.648;4.764;2023-10-09T00:59:53;101952.50;;;20.93;68.91
64388;BME280;50709;52.648;4.764;2023-10-09T01:02:29;101937.50;;;20.89;68.56
64388;BME280;50709;52.648;4.764;2023-10-09T01:05:04;101949.78;;;20.95;68.94
64388;BME280;50709;52.648;4.764;2023-10-09T01:07:37;101943.53;;;20.97;68.86
64388;BME280;50709;52.648;4.764;2023-10-09T01:10:06;101948.78;;;21.00;68.54
64388;BME280;50709;52.648;4.764;2023-10-09T01:12:36;101939.22;;;20.92;68.78
64388;BME280;50709;52.648;4.764;2023-10-09T01:15:07;101943.75;;;20.88;68.69
64388;BME280;50709;52.648;4.764;2023-10-09T01:17:34;101945.22;;;21.02;68.71
64388;BME280;50709;52.648;4.764;2023-10-09T01:20:24;101939.91;;;21.00;67.96
64388;BME280;50709;52.648;4.764;2023-10-09T01:23:00;101942.56;;;21.00;68.79
64388;BME280;50709;52.648;4.764;2023-10-09T01:25:26;101919.84;;;20.88;68.41
64388;BME280;50709;52.648;4.764;2023-10-09T01:28:09;101932.91;;;20.97;68.73
64388;BME280;50709;52.648;4.764;2023-10-09T01:30:35;101924.06;;;20.97;68.51
64388;BME280;50709;52.648;4.764;2023-10-09T01:33:21;101942.72;;;20.94;68.67
64388;BME280;50709;52.648;4.764;2023-10-09T01:35:54;101946.13;;;21.00;68.25
64388;BME280;50709;52.648;4.764;2023-10-09T01:38:25;101935.44;;;21.02;68.30
64388;BME280;50709;52.648;4.764;2023-10-09T01:41:12;101937.25;;;21.00;68.23
64388;BME280;50709;52.648;4.764;2023-10-09T01:43:45;101924.97;;;20.96;67.82
64388;BME280;50709;52.648;4.764;2023-10-09T01:46:33;101925.84;;;20.96;68.12
64388;BME280;50709;52.648;4.764;2023-10-09T01:48:58;101896.81;;;20.89;67.74
64388;BME280;50709;52.648;4.764;2023-10-09T01:51:33;101902.97;;;20.91;68.10
64388;BME280;50709;52.648;4.764;2023-10-09T01:54:02;101903.81;;;20.93;67.96
64388;BME280;50709;52.648;4.764;2023-10-09T01:56:28;101899.25;;;20.98;67.75
64388;BME280;50709;52.648;4.764;2023-10-09T01:58:56;101910.81;;;20.95;67.52
64388;BME280;50709;52.648;4.764;2023-10-09T02:01:27;101904.81;;;20.87;67.46
64388;BME280;50709;52.648;4.764;2023-10-09T02:03:55;101895.16;;;20.84;67.62
64388;BME280;50709;52.648;4.764;2023-10-09T02:06:29;101885.25;;;20.91;67.17
64388;BME280;50709;52.648;4.764;2023-10-09T02:09:00;101901.91;;;20.98;67.06
64388;BME280;50709;52.648;4.764;2023-10-09T02:11:47;101906.38;;;20.97;66.95
64388;BME280;50709;52.648;4.764;2023-10-09T02:14:12;101899.28;;;20.96;66.79
64388;BME280;50709;52.648;4.764;2023-10-09T02:16:48;101899.47;;;20.89;66.65
64388;BME280;50709;52.648;4.764;2023-10-09T02:19:44;101894.72;;;21.03;66.45
64388;BME280;50709;52.648;4.764;2023-10-09T02:22:15;101919.59;;;20.99;66.50
64388;BME280;50709;52.648;4.764;2023-10-09T02:24:43;101905.38;;;21.00;66.16
64388;BME280;50709;52.648;4.764;2023-10-09T02:27:19;101892.00;;;21.05;66.14
64388;BME280;50709;52.648;4.764;2023-10-09T02:30:04;101869.91;;;21.03;65.72
64388;BME280;50709;52.648;4.764;2023-10-09T02:32:43;101900.59;;;21.14;65.92
64388;BME280;50709;52.648;4.764;2023-10-09T02:35:10;101889.28;;;21.08;66.03
64388;BME280;50709;52.648;4.764;2023-10-09T02:37:57;101889.28;;;21.08;66.08
64388;BME280;50709;52.648;4.764;2023-10-09T02:40:27;101875.22;;;21.04;66.64
64388;BME280;50709;52.648;4.764;2023-10-09T02:43:19;101863.63;;;21.07;66.21
64388;BME280;50709;52.648;4.764;2023-10-09T02:45:46;101859.06;;;21.12;66.14
64388;BME280;50709;52.648;4.764;2023-10-09T02:48:18;101866.41;;;21.02;66.29
64388;BME280;50709;52.648;4.764;2023-10-09T02:50:52;101864.50;;;21.07;66.33
64388;BME280;50709;52.648;4.764;2023-10-09T02:53:19;101846.19;;;20.96;66.45
64388;BME280;50709;52.648;4.764;2023-10-09T02:56:04;101875.16;;;21.06;66.29
64388;BME280;50709;52.648;4.764;2023-10-09T02:59:00;101883.91;;;21.09;66.48
64388;BME280;50709;52.648;4.764;2023-10-09T03:01:35;101888.72;;;20.95;66.96
64388;BME280;50709;52.648;4.764;2023-10-09T03:04:06;101883.31;;;20.98;66.88
64388;BME280;50709;52.648;4.764;2023-10-09T03:06:36;101888.41;;;21.07;66.39
64388;BME280;50709;52.648;4.764;2023-10-09T03:09:18;101879.72;;;21.00;66.27
64388;BME280;50709;52.648;4.764;2023-10-09T03:11:48;101877.25;;;20.93;66.95
64388;BME280;50709;52.648;4.764;2023-10-09T03:14:40;101887.00;;;20.92;67.02
64388;BME280;50709;52.648;4.764;2023-10-09T03:17:06;101890.13;;;21.10;66.10
64388;BME280;50709;52.648;4.764;2023-10-09T03:19:36;101880.75;;;20.95;66.99
64388;BME280;50709;52.648;4.764;2023-10-09T03:22:08;101896.28;;;21.10;66.90
64388;BME280;50709;52.648;4.764;2023-10-09T03:24:35;101891.16;;;21.03;67.01
64388;BME280;50709;52.648;4.764;2023-10-09T03:27:24;101879.69;;;21.02;66.51
64388;BME280;50709;52.648;4.764;2023-10-09T03:29:50;101897.94;;;21.14;66.51
64388;BME280;50709;52.648;4.764;2023-10-09T03:32:20;101881.19;;;21.12;66.50
64388;BME280;50709;52.648;4.764;2023-10-09T03:34:45;101861.22;;;20.96;67.05
64388;BME280;50709;52.648;4.764;2023-10-09T03:37:11;101862.97;;;20.97;67.41
64388;BME280;50709;52.648;4.764;2023-10-09T03:39:47;101862.75;;;21.06;66.86
64388;BME280;50709;52.648;4.764;2023-10-09T03:42:14;101852.34;;;20.97;67.11
64388;BME280;50709;52.648;4.764;2023-10-09T03:44:49;101855.72;;;21.04;66.44
64388;BME280;50709;52.648;4.764;2023-10-09T03:47:34;101866.97;;;21.13;66.37
64388;BME280;50709;52.648;4.764;2023-10-09T03:49:59;101853.69;;;21.15;66.49
64388;BME280;50709;52.648;4.764;2023-10-09T03:52:30;101850.47;;;21.02;67.00
64388;BME280;50709;52.648;4.764;2023-10-09T03:54:56;101839.72;;;21.07;66.79
64388;BME280;50709;52.648;4.764;2023-10-09T03:57:22;101852.69;;;21.19;66.41
64388;BME280;50709;52.648;4.764;2023-10-09T03:59:48;101859.81;;;21.17;66.78
64388;BME280;50709;52.648;4.764;2023-10-09T04:02:16;101861.63;;;21.16;66.76
64388;BME280;50709;52.648;4.764;2023-10-09T04:04:43;101851.94;;;21.14;66.62
64388;BME280;50709;52.648;4.764;2023-10-09T04:07:17;101858.31;;;21.07;66.82
64388;BME280;50709;52.648;4.764;2023-10-09T04:09:42;101853.00;;;21.07;67.27
64388;BME280;50709;52.648;4.764;2023-10-09T04:12:12;101855.59;;;21.10;66.79
64388;BME280;50709;52.648;4.764;2023-10-09T04:14:45;101847.69;;;21.07;66.88
64388;BME280;50709;52.648;4.764;2023-10-09T04:17:23;101869.53;;;21.18;67.06
64388;BME280;50709;52.648;4.764;2023-10-09T04:19:49;101860.00;;;21.09;67.06
64388;BME280;50709;52.648;4.764;2023-10-09T04:22:39;101834.66;;;20.97;67.24
64388;BME280;50709;52.648;4.764;2023-10-09T04:25:08;101866.16;;;21.11;67.51
64388;BME280;50709;52.648;4.764;2023-10-09T04:28:07;101864.41;;;21.10;67.47
64388;BME280;50709;52.648;4.764;2023-10-09T04:30:48;101840.69;;;21.03;67.21
64388;BME280;50709;52.648;4.764;2023-10-09T04:33:33;101877.59;;;21.15;67.38
64388;BME280;50709;52.648;4.764;2023-10-09T04:36:06;101850.97;;;20.82;67.17
64388;BME280;50709;52.648;4.764;2023-10-09T04:38:48;101888.50;;;21.04;67.81
64388;BME280;50709;52.648;4.764;2023-10-09T04:41:32;101893.75;;;21.06;67.49
64388;BME280;50709;52.648;4.764;2023-10-09T04:44:19;101903.44;;;21.07;67.63
64388;BME280;50709;52.648;4.764;2023-10-09T04:46:49;101889.66;;;20.92;67.74
64388;BME280;50709;52.648;4.764;2023-10-09T04:49:34;101930.06;;;21.05;67.81
64388;BME280;50709;52.648;4.764;2023-10-09T04:52:20;101937.25;;;21.02;67.61
64388;BME280;50709;52.648;4.764;2023-10-09T04:54:54;101935.59;;;20.96;67.87
64388;BME280;50709;52.648;4.764;2023-10-09T04:57:32;101939.00;;;21.01;67.87
64388;BME280;50709;52.648;4.764;2023-10-09T05:00:18;101943.84;;;20.83;68.56
64388;BME280;50709;52.648;4.764;2023-10-09T05:03:01;101939.78;;;21.06;67.95
64388;BME280;50709;52.648;4.764;2023-10-09T05:05:35;101940.22;;;20.88;68.06
64388;BME280;50709;52.648;4.764;2023-10-09T05:08:07;101933.91;;;20.93;68.06
64388;BME280;50709;52.648;4.764;2023-10-09T05:11:05;101920.97;;;20.78;68.45
64388;BME280;50709;52.648;4.764;2023-10-09T05:13:33;101914.41;;;20.93;68.14
64388;BME280;50709;52.648;4.764;2023-10-09T05:16:15;101901.06;;;20.96;67.55
64388;BME280;50709;52.648;4.764;2023-10-09T05:18:44;101858.34;;;21.05;67.23
64388;BME280;50709;52.648;4.764;2023-10-09T05:21:39;101901.59;;;21.10;66.70
64388;BME280;50709;52.648;4.764;2023-10-09T05:24:33;101918.88;;;21.27;66.99
64388;BME280;50709;52.648;4.764;2023-10-09T05:27:13;101902.66;;;21.38;66.15
64388;BME280;50709;52.648;4.764;2023-10-09T05:30:08;101915.91;;;21.41;66.28
64388;BME280;50709;52.648;4.764;2023-10-09T05:32:53;101895.69;;;21.33;65.95
64388;BME280;50709;52.648;4.764;2023-10-09T05:35:23;101897.16;;;21.45;65.88
64388;BME280;50709;52.648;4.764;2023-10-09T05:38:06;101907.06;;;21.39;66.18
64388;BME280;50709;52.648;4.764;2023-10-09T05:40:41;101900.00;;;21.39;66.32
64388;BME280;50709;52.648;4.764;2023-10-09T05:43:09;101899.28;;;21.32;66.37
64388;BME280;50709;52.648;4.764;2023-10-09T05:45:54;101903.50;;;21.40;65.96
64388;BME280;50709;52.648;4.764;2023-10-09T05:48:40;101876.00;;;21.42;65.84
64388;BME280;50709;52.648;4.764;2023-10-09T05:51:05;101877.66;;;21.46;65.78
64388;BME280;50709;52.648;4.764;2023-10-09T05:53:34;101865.09;;;21.51;65.45
64388;BME280;50709;52.648;4.764;2023-10-09T05:56:08;101878.38;;;21.53;65.32
64388;BME280;50709;52.648;4.764;2023-10-09T05:58:53;101889.19;;;21.45;65.86
64388;BME280;50709;52.648;4.764;2023-10-09T06:01:41;101910.44;;;21.45;65.64
64388;BME280;50709;52.648;4.764;2023-10-09T06:04:16;101908.78;;;21.41;65.72
64388;BME280;50709;52.648;4.764;2023-10-09T06:06:43;101905.22;;;21.42;65.58
64388;BME280;50709;52.648;4.764;2023-10-09T06:09:14;101886.97;;;21.28;65.76
64388;BME280;50709;52.648;4.764;2023-10-09T06:11:43;101906.53;;;21.26;66.21
64388;BME280;50709;52.648;4.764;2023-10-09T06:14:18;101903.69;;;21.32;65.62
64388;BME280;50709;52.648;4.764;2023-10-09T06:17:04;101923.72;;;21.45;65.52
64388;BME280;50709;52.648;4.764;2023-10-09T06:19:39;101917.88;;;21.32;66.03
64388;BME280;50709;52.648;4.764;2023-10-09T06:22:10;101900.22;;;21.30;66.01
64388;BME280;50709;52.648;4.764;2023-10-09T06:24:54;101917.78;;;21.36;65.84
64388;BME280;50709;52.648;4.764;2023-10-09T06:27:23;101915.19;;;21.34;66.17
64388;BME280;50709;52.648;4.764;2023-10-09T06:29:54;101913.34;;;21.36;66.08
64388;BME280;50709;52.648;4.764;2023-10-09T06:32:42;101903.56;;;21.38;65.85
64388;BME280;50709;52.648;4.764;2023-10-09T06:35:20;101881.63;;;21.30;65.73
64388;BME280;50709;52.648;4.764;2023-10-09T06:37:56;101880.75;;;21.29;66.05
64388;BME280;50709;52.648;4.764;2023-10-09T06:40:28;101882.44;;;21.32;66.12
64388;BME280;50709;52.648;4.764;2023-10-09T06:43:13;101879.03;;;21.27;66.43
64388;BME280;50709;52.648;4.764;2023-10-09T06:45:51;101878.13;;;21.28;66.54
64388;BME280;50709;52.648;4.764;2023-10-09T06:48:26;101883.44;;;21.28;66.60
64388;BME280;50709;52.648;4.764;2023-10-09T06:51:08;101876.34;;;21.28;66.96
64388;BME280;50709;52.648;4.764;2023-10-09T06:53:53;101856.03;;;21.27;66.85
64388;BME280;50709;52.648;4.764;2023-10-09T06:56:25;101864.75;;;21.31;66.70
64388;BME280;50709;52.648;4.764;2023-10-09T06:59:05;101872.78;;;21.29;66.62
64388;BME280;50709;52.648;4.764;2023-10-09T07:01:48;101884.34;;;21.27;66.80
64388;BME280;50709;52.648;4.764;2023-10-09T07:04:34;101880.78;;;21.28;67.03
64388;BME280;50709;52.648;4.764;2023-10-09T07:06:59;101884.31;;;21.28;66.99
64388;BME280;50709;52.648;4.764;2023-10-09T07:09:27;101886.94;;;21.30;67.03
64388;BME280;50709;52.648;4.764;2023-10-09T07:12:08;101867.50;;;21.28;67.40
64388;BME280;50709;52.648;4.764;2023-10-09T07:14:51;101863.91;;;21.30;67.18
64388;BME280;50709;52.648;4.764;2023-10-09T07:17:16;101869.97;;;21.36;67.23
64388;BME280;50709;52.648;4.764;2023-10-09T07:19:47;101863.00;;;21.31;67.16
64388;BME280;50709;52.648;4.764;2023-10-09T07:22:34;101885.06;;;21.33;67.42
64388;BME280;50709;52.648;4.764;2023-10-09T07:25:05;101877.19;;;21.30;67.52
64388;BME280;50709;52.648;4.764;2023-10-09T07:27:40;101879.97;;;21.26;67.63
64388;BME280;50709;52.648;4.764;2023-10-09T07:30:19;101886.94;;;21.30;67.62
64388;BME280;50709;52.648;4.764;2023-10-09T07:33:11;101892.16;;;21.33;67.55
64388;BME280;50709;52.648;4.764;2023-10-09T07:35:47;101893.84;;;21.37;67.49
64388;BME280;50709;52.648;4.764;2023-10-09T07:38:19;101904.50;;;21.36;67.40
64388;BME280;50709;52.648;4.764;2023-10-09T07:40:49;101910.63;;;21.38;67.31
64388;BME280;50709;52.648;4.764;2023-10-09T07:43:41;101927.38;;;21.41;67.30
64388;BME280;50709;52.648;4.764;2023-10-09T07:46:14;101908.41;;;21.22;67.39
64388;BME280;50709;52.648;4.764;2023-10-09T07:48:56;101953.13;;;21.39;67.21
64388;BME280;50709;52.648;4.764;2023-10-09T07:51:23;101982.06;;;21.51;66.68
64388;BME280;50709;52.648;4.764;2023-10-09T07:53:55;101976.94;;;21.44;67.12
64388;BME280;50709;52.648;4.764;2023-10-09T07:56:39;101986.97;;;21.31;67.30
64388;BME280;50709;52.648;4.764;2023-10-09T07:59:15;101996.34;;;21.46;66.86
64388;BME280;50709;52.648;4.764;2023-10-09T08:01:44;101947.09;;;21.32;66.02
64388;BME280;50709;52.648;4.764;2023-10-09T08:04:29;101968.75;;;21.53;66.46
64388;BME280;50709;52.648;4.764;2023-10-09T08:07:14;101979.25;;;21.58;66.59
64388;BME280;50709;52.648;4.764;2023-10-09T08:09:53;101989.88;;;21.58;66.47
64388;BME280;50709;52.648;4.764;2023-10-09T08:12:37;101989.13;;;21.51;66.62
64388;BME280;50709;52.648;4.764;2023-10-09T08:15:12;102001.56;;;21.50;66.64
64388;BME280;50709;52.648;4.764;2023-10-09T08:17:56;102019.94;;;21.61;66.85
64388;BME280;50709;52.648;4.764;2023-10-09T08:20:27;102014.84;;;21.50;67.03
64388;BME280;50709;52.648;4.764;2023-10-09T08:23:01;102009.81;;;21.74;66.08
64388;BME280;50709;52.648;4.764;2023-10-09T08:25:29;102000.22;;;21.68;66.21
64388;BME280;50709;52.648;4.764;2023-10-09T08:28:01;101988.13;;;21.58;66.05
64388;BME280;50709;52.648;4.764;2023-10-09T08:30:46;102014.47;;;21.66;65.90
64388;BME280;50709;52.648;4.764;2023-10-09T08:33:17;102020.78;;;21.62;66.00
64388;BME280;50709;52.648;4.764;2023-10-09T08:35:55;102030.25;;;21.74;65.39
64388;BME280;50709;52.648;4.764;2023-10-09T08:38:27;102030.56;;;21.61;66.12
64388;BME280;50709;52.648;4.764;2023-10-09T08:41:06;102040.88;;;21.74;65.86
64388;BME280;50709;52.648;4.764;2023-10-09T08:43:46;102029.28;;;21.76;65.78
64388;BME280;50709;52.648;4.764;2023-10-09T08:46:12;102041.38;;;21.52;66.00
64388;BME280;50709;52.648;4.764;2023-10-09T08:48:44;102028.94;;;21.56;65.95
64388;BME280;50709;52.648;4.764;2023-10-09T08:51:10;102027.47;;;21.78;65.64
64388;BME280;50709;52.648;4.764;2023-10-09T08:53:35;102023.22;;;21.71;65.50
64388;BME280;50709;52.648;4.764;2023-10-09T08:56:10;102007.50;;;21.62;66.00
64388;BME280;50709;52.648;4.764;2023-10-09T08:58:35;101995.56;;;21.42;65.89
64388;BME280;50709;52.648;4.764;2023-10-09T09:01:06;102001.19;;;21.66;65.46
64388;BME280;50709;52.648;4.764;2023-10-09T09:03:42;101986.22;;;21.62;65.38
64388;BME280;50709;52.648;4.764;2023-10-09T09:06:10;102004.78;;;21.63;65.32
64388;BME280;50709;52.648;4.764;2023-10-09T09:08:37;101992.50;;;21.59;65.31
64388;BME280;50709;52.648;4.764;2023-10-09T09:11:04;101987.47;;;21.83;64.83
64388;BME280;50709;52.648;4.764;2023-10-09T09:14:01;101989.59;;;21.68;64.99
64388;BME280;50709;52.648;4.764;2023-10-09T09:16:43;102008.81;;;21.80;64.77
64388;BME280;50709;52.648;4.764;2023-10-09T09:19:14;102014.50;;;21.99;64.61
64388;BME280;50709;52.648;4.764;2023-10-09T09:21:49;102016.66;;;21.84;64.71
64388;BME280;50709;52.648;4.764;2023-10-09T09:24:20;102014.19;;;21.78;64.15
64388;BME280;50709;52.648;4.764;2023-10-09T09:26:57;101978.09;;;21.68;64.54
64388;BME280;50709;52.648;4.764;2023-10-09T09:32:03;102023.19;;;22.06;64.00
64388;BME280;50709;52.648;4.764;2023-10-09T09:34:53;102016.09;;;22.06;64.38
64388;BME280;50709;52.648;4.764;2023-10-09T09:37:30;102021.31;;;22.09;64.52
64388;BME280;50709;52.648;4.764;2023-10-09T09:40:08;102017.00;;;22.05;64.53
64388;BME280;50709;52.648;4.764;2023-10-09T09:42:43;102011.16;;;21.92;64.68
64388;BME280;50709;52.648;4.764;2023-10-09T09:45:13;102024.25;;;21.98;64.36
64388;BME280;50709;52.648;4.764;2023-10-09T09:47:40;102028.63;;;22.01;64.17
64388;BME280;50709;52.648;4.764;2023-10-09T09:50:12;102025.06;;;22.02;64.26
64388;BME280;50709;52.648;4.764;2023-10-09T09:52:49;102041.97;;;21.99;64.01
64388;BME280;50709;52.648;4.764;2023-10-09T09:55:19;102037.59;;;21.97;64.16
64388;BME280;50709;52.648;4.764;2023-10-09T09:57:48;102055.69;;;22.17;64.02
64388;BME280;50709;52.648;4.764;2023-10-09T10:00:22;102060.09;;;22.18;63.78
64388;BME280;50709;52.648;4.764;2023-10-09T10:05:52;102053.63;;;21.95;64.41
64388;BME280;50709;52.648;4.764;2023-10-09T10:08:22;102046.34;;;22.02;64.03
64388;BME280;50709;52.648;4.764;2023-10-09T10:10:56;102041.69;;;22.10;64.30
64388;BME280;50709;52.648;4.764;2023-10-09T10:16:12;102046.72;;;22.21;63.86
64388;BME280;50709;52.648;4.764;2023-10-09T10:19:06;102061.19;;;22.11;63.99
64388;BME280;50709;52.648;4.764;2023-10-09T10:21:44;102050.28;;;22.20;64.02
64388;BME280;50709;52.648;4.764;2023-10-09T10:24:40;102050.91;;;22.30;63.33
64388;BME280;50709;52.648;4.764;2023-10-09T10:27:23;102039.63;;;22.22;63.92
64388;BME280;50709;52.648;4.764;2023-10-09T10:35:16;102032.50;;;22.22;63.88
64388;BME280;50709;52.648;4.764;2023-10-09T10:37:42;102055.41;;;22.28;63.83
64388;BME280;50709;52.648;4.764;2023-10-09T10:40:26;102052.50;;;22.37;63.51
64388;BME280;50709;52.648;4.764;2023-10-09T10:43:18;102046.91;;;22.15;64.22
64388;BME280;50709;52.648;4.764;2023-10-09T10:46:07;102048.50;;;22.21;63.49
64388;BME280;50709;52.648;4.764;2023-10-09T10:48:39;102059.69;;;22.35;63.37
64388;BME280;50709;52.648;4.764;2023-10-09T10:51:05;102065.78;;;22.39;63.27
64388;BME280;50709;52.648;4.764;2023-10-09T10:53:30;102045.66;;;22.27;63.55
64388;BME280;50709;52.648;4.764;2023-10-09T10:56:13;102059.97;;;22.23;63.81
64388;BME280;50709;52.648;4.764;2023-10-09T10:58:42;102051.06;;;22.24;64.16
64388;BME280;50709;52.648;4.764;2023-10-09T11:01:19;102046.56;;;22.27;63.58
64388;BME280;50709;52.648;4.764;2023-10-09T11:03:49;102044.75;;;22.28;63.79
64388;BME280;50709;52.648;4.764;2023-10-09T11:06:28;102037.63;;;22.30;63.38
64388;BME280;50709;52.648;4.764;2023-10-09T11:09:09;102055.31;;;22.31;63.74
64388;BME280;50709;52.648;4.764;2023-10-09T11:11:46;102051.25;;;22.50;62.95
64388;BME280;50709;52.648;4.764;2023-10-09T11:14:13;102064.56;;;22.50;63.31
64388;BME280;50709;52.648;4.764;2023-10-09T11:16:51;102073.75;;;22.39;63.90
64388;BME280;50709;52.648;4.764;2023-10-09T11:19:23;102063.91;;;22.42;63.46
64388;BME280;50709;52.648;4.764;2023-10-09T11:21:55;102068.03;;;22.20;64.16
64388;BME280;50709;52.648;4.764;2023-10-09T11:24:26;102077.25;;;22.41;63.94
64388;BME280;50709;52.648;4.764;2023-10-09T11:26:53;102058.09;;;22.26;64.07
64388;BME280;50709;52.648;4.764;2023-10-09T11:29:21;102064.81;;;22.41;64.25
64388;BME280;50709;52.648;4.764;2023-10-09T11:32:28;102052.25;;;22.46;63.57
64388;BME280;50709;52.648;4.764;2023-10-09T11:35:14;102050.41;;;22.48;63.41
64388;BME280;50709;52.648;4.764;2023-10-09T11:37:54;102056.66;;;22.47;63.78
64388;BME280;50709;52.648;4.764;2023-10-09T11:40:33;102054.91;;;22.46;63.62
64388;BME280;50709;52.648;4.764;2023-10-09T11:43:19;102050.97;;;22.27;63.61
64388;BME280;50709;52.648;4.764;2023-10-09T11:46:09;102065.69;;;22.42;63.40
64388;BME280;50709;52.648;4.764;2023-10-09T11:48:39;102044.91;;;22.23;63.62
64388;BME280;50709;52.648;4.764;2023-10-09T11:51:33;102068.22;;;22.46;63.42
64388;BME280;50709;52.648;4.764;2023-10-09T11:54:03;102068.06;;;22.53;62.64
64388;BME280;50709;52.648;4.764;2023-10-09T11:56:28;102066.25;;;22.53;63.14
64388;BME280;50709;52.648;4.764;2023-10-09T11:58:54;102063.28;;;22.32;63.46
64388;BME280;50709;52.648;4.764;2023-10-09T12:01:23;102058.44;;;22.14;63.78
64388;BME280;50709;52.648;4.764;2023-10-09T12:03:50;102060.97;;;22.18;64.20
64388;BME280;50709;52.648;4.764;2023-10-09T12:06:17;102068.09;;;22.18;64.11
64388;BME280;50709;52.648;4.764;2023-10-09T12:08:45;102072.75;;;22.43;63.36
64388;BME280;50709;52.648;4.764;2023-10-09T12:11:12;102080.44;;;22.21;63.88
64388;BME280;50709;52.648;4.764;2023-10-09T12:13:40;102045.34;;;22.06;63.80
64388;BME280;50709;52.648;4.764;2023-10-09T12:16:08;102059.25;;;22.17;64.08
64388;BME280;50709;52.648;4.764;2023-10-09T12:18:40;102061.72;;;22.24;63.49
64388;BME280;50709;52.648;4.764;2023-10-09T12:21:06;102058.16;;;22.25;63.30
64388;BME280;50709;52.648;4.764;2023-10-09T12:23:32;102066.88;;;22.30;63.55
64388;BME280;50709;52.648;4.764;2023-10-09T12:26:01;102060.00;;;22.21;63.91
64388;BME280;50709;52.648;4.764;2023-10-09T12:28:27;102060.22;;;22.13;64.31
64388;BME280;50709;52.648;4.764;2023-10-09T12:30:53;102047.84;;;22.12;63.90
64388;BME280;50709;52.648;4.764;2023-10-09T12:33:20;102061.72;;;22.24;63.73
64388;BME280;50709;52.648;4.764;2023-10-09T12:35:53;102056.50;;;22.21;63.97
64388;BME280;50709;52.648;4.764;2023-10-09T12:38:24;102048.50;;;22.21;63.88
64388;BME280;50709;52.648;4.764;2023-10-09T12:41:03;102048.91;;;22.05;64.33
64388;BME280;50709;52.648;4.764;2023-10-09T12:43:47;102050.28;;;22.20;64.29
64388;BME280;50709;52.648;4.764;2023-10-09T12:46:13;102056.59;;;22.17;63.96
64388;BME280;50709;52.648;4.764;2023-10-09T12:48:43;102051.69;;;22.35;63.35
64388;BME280;50709;52.648;4.764;2023-10-09T12:51:12;102041.50;;;22.49;62.88
64388;BME280;50709;52.648;4.764;2023-10-09T12:53:44;102036.50;;;22.39;63.57
64388;BME280;50709;52.648;4.764;2023-10-09T12:56:11;102041.88;;;22.37;63.88
64388;BME280;50709;52.648;4.764;2023-10-09T12:58:40;102040.75;;;22.44;63.41
64388;BME280;50709;52.648;4.764;2023-10-09T13:01:10;102041.44;;;22.53;63.41
64388;BME280;50709;52.648;4.764;2023-10-09T13:03:37;102036.97;;;22.53;63.07
64388;BME280;50709;52.648;4.764;2023-10-09T13:06:06;102026.03;;;22.31;63.73
64388;BME280;50709;52.648;4.764;2023-10-09T13:08:36;102032.13;;;22.36;63.71
64388;BME280;50709;52.648;4.764;2023-10-09T13:11:03;102042.41;;;22.50;63.26
64388;BME280;50709;52.648;4.764;2023-10-09T13:13:42;102032.78;;;22.44;63.64
64388;BME280;50709;52.648;4.764;2023-10-09T13:16:13;102034.31;;;22.53;63.45
64388;BME280;50709;52.648;4.764;2023-10-09T13:18:46;102011.16;;;22.55;63.03
64388;BME280;50709;52.648;4.764;2023-10-09T13:21:36;102012.72;;;22.32;63.30
64388;BME280;50709;52.648;4.764;2023-10-09T13:24:09;102040.97;;;22.68;62.59
64388;BME280;50709;52.648;4.764;2023-10-09T13:26:44;102044.06;;;22.54;62.91
64388;BME280;50709;52.648;4.764;2023-10-09T13:29:16;102036.84;;;22.58;62.85
64388;BME280;50709;52.648;4.764;2023-10-09T13:31:48;102041.59;;;22.46;63.27
64388;BME280;50709;52.648;4.764;2023-10-09T13:34:15;102035.19;;;22.54;63.50
64388;BME280;50709;52.648;4.764;2023-10-09T13:36:41;102035.69;;;22.37;63.80
64388;BME280;50709;52.648;4.764;2023-10-09T13:39:21;102033.88;;;22.37;63.84
64388;BME280;50709;52.648;4.764;2023-10-09T13:41:59;102032.19;;;22.34;63.60
64388;BME280;50709;52.648;4.764;2023-10-09T13:44:28;102030.31;;;22.38;63.42
64388;BME280;50709;52.648;4.764;2023-10-09T13:46:55;102025.81;;;22.40;63.47